Kaiser — NHJK — position and weather

sailwx.info

Track history (hours):
 
Tides and Currents Weather Stations Pressure Air Temp Water Temp Dewpoint Dewpoint Depression Visibility Wind Speed Wind Dir Waves Ship Positions

Kaiser

Last reported at 2015-Mar-28 03:32 UTC. Time now 2015-Mar-28 05:14 UTC.
Position N 32°42' W 117°11'.

Length 207 m; draft 8.5 m.

Type: Tanker. MMSI: 303849000.

Date/timePositionNaut miles runAvg speedWind from/ knotsBaromVisibWave heightAir tempDewpointWater temp
2015-Mar-28 03:32N 32°42' W 117°11'0 0.0
2015-Mar-28 02:32N 32°42' W 117°11'0 0.0
2015-Mar-28 01:32N 32°42' W 117°11'0 0.0
2015-Mar-28 00:29N 32°42' W 117°11'0 0.0
2015-Mar-27 23:32N 32°42' W 117°11'0 0.0
2015-Mar-27 22:32N 32°42' W 117°11'0 0.0
2015-Mar-27 21:29N 32°42' W 117°11'0 0.2
2015-Mar-27 20:33N 32°42' W 117°11'7 6.6
2015-Mar-27 19:33N 32°36' W 117°13'10 9.9
2015-Mar-27 18:33N 32°31' W 117°24'8 8.1
2015-Mar-27 17:33N 32°30' W 117°33'2 2.3
2015-Mar-27 16:33N 32°30' W 117°36'8 8.2
2015-Mar-27 15:33N 32°30' W 117°26'4 3.7
2015-Mar-27 14:33N 32°30' W 117°30'6 5.7
2015-Mar-27 13:33N 32°31' W 117°37'8 7.8
2015-Mar-27 12:33N 32°30' W 117°28'2 2.0
2015-Mar-27 11:34N 32°30' W 117°25'8 7.7
2015-Mar-27 10:34N 32°30' W 117°35'7 6.6
2015-Mar-27 09:33N 32°30' W 117°27'0 0.4
2015-Mar-27 08:33N 32°30' W 117°27'7 7.4
2015-Mar-27 07:34N 32°30' W 117°36'4 4.0
2015-Mar-27 06:33N 32°30' W 117°31'8 7.9
2015-Mar-27 05:33N 32°32' W 117°22'4 4.2
2015-Mar-27 04:34N 32°34' W 117°17'7 6.8
2015-Mar-27 03:33N 32°35' W 117°25'7 7.0
2015-Mar-27 02:33N 32°36' W 117°34'8 7.7
2015-Mar-27 01:33N 32°35' W 117°25'6 6.4
2015-Mar-27 00:33N 32°35' W 117°32'1111.4
2015-Mar-26 23:33N 32°35' W 117°46'1515.2
2015-Mar-26 22:33N 32°36' W 118°04'1413.8
2015-Mar-26 21:33N 32°36' W 118°20'1312.9
2015-Mar-26 20:33N 32°36' W 118°35'1212.2
2015-Mar-26 19:33N 32°36' W 118°50'10 9.6
2015-Mar-26 18:33N 32°36' W 119°01'1010.4
2015-Mar-26 17:33N 32°34' W 118°49'1312.7
2015-Mar-26 16:33N 32°35' W 118°34'1313.0
2015-Mar-26 15:33N 32°35' W 118°19'1312.9
2015-Mar-26 14:33N 32°36' W 118°03'1111.3
2015-Mar-26 13:33N 32°36' W 117°50'3 2.6
2015-Mar-26 12:33N 32°36' W 117°47'9 8.9
2015-Mar-26 11:33N 32°36' W 117°57'9 8.7
2015-Mar-26 10:33N 32°36' W 118°08'1 0.9
2015-Mar-26 09:33N 32°36' W 118°09'10 9.6
2015-Mar-26 08:33N 32°36' W 117°57'5 4.7
2015-Mar-26 07:33N 32°36' W 117°52'9 8.7
2015-Mar-26 06:33N 32°36' W 118°02'9 8.8
2015-Mar-26 05:33N 32°36' W 118°13'9 9.2
2015-Mar-26 04:33N 32°36' W 118°24'9 9.3
2015-Mar-26 03:33N 32°36' W 118°35'9 9.0
2015-Mar-26 02:33N 32°36' W 118°45'10 9.8
2015-Mar-26 01:33N 32°36' W 118°57'2 2.5
2015-Mar-26 00:33N 32°37' W 118°54'1312.8
2015-Mar-25 23:33N 32°37' W 118°39'1211.8
2015-Mar-25 22:34N 32°37' W 118°25'1313.2
2015-Mar-25 21:33N 32°37' W 118°41'1313.2
2015-Mar-25 20:34N 32°37' W 118°56'1313.1
2015-Mar-25 19:33N 32°37' W 119°12'7 7.2
2015-Mar-25 18:33N 32°37' W 119°03'1212.3
2015-Mar-25 17:33N 32°37' W 118°49'1212.6
2015-Mar-25 16:33N 32°37' W 118°34'1312.9
2015-Mar-25 15:33N 32°37' W 118°19'1312.8
2015-Mar-25 14:33N 32°36' W 118°03'1211.8
2015-Mar-25 13:33N 32°36' W 117°49'2 1.6
2015-Mar-25 12:33N 32°35' W 117°48'7 6.8
2015-Mar-25 11:33N 32°35' W 117°56'1 0.8
2015-Mar-25 10:33N 32°36' W 117°57'7 7.0
2015-Mar-25 09:33N 32°36' W 117°48'7 7.0
2015-Mar-25 08:33N 32°36' W 117°40'7 7.3
2015-Mar-25 07:33N 32°36' W 117°31'2 2.0
2015-Mar-25 06:33N 32°35' W 117°29'6 6.4
2015-Mar-25 05:34N 32°36' W 117°36'7 7.0
2015-Mar-25 04:33N 32°36' W 117°28'7 6.8
2015-Mar-25 03:33N 32°36' W 117°20'7 6.6
2015-Mar-25 02:33N 32°35' W 117°28'7 6.8
2015-Mar-25 01:33N 32°35' W 117°36'1 0.8
2015-Mar-25 00:33N 32°35' W 117°35'7 6.7
2015-Mar-24 23:33N 32°35' W 117°27'6 6.2
2015-Mar-24 22:33N 32°35' W 117°20'2 1.5
2015-Mar-24 21:33N 32°34' W 117°18'3 2.8
2015-Mar-24 20:33N 32°35' W 117°22'8 7.6
2015-Mar-24 19:33N 32°35' W 117°30'2 2.5
2015-Mar-24 18:33N 32°36' W 117°28'6 6.4
2015-Mar-24 17:33N 32°36' W 117°20'8 7.4
2015-Mar-24 16:32N 32°42' W 117°14'0 0.4
2015-Mar-24 15:25N 32°42' W 117°14'0 0.0
2015-Mar-24 14:31N 32°42' W 117°14'0 0.0
2015-Mar-24 13:19N 32°42' W 117°14'0 0.0
2015-Mar-24 12:31N 32°42' W 117°14'0 0.0
2015-Mar-24 11:31N 32°42' W 117°14'0 0.0
2015-Mar-24 10:31N 32°42' W 117°14'0 0.0
2015-Mar-24 09:31N 32°42' W 117°14'0 0.0
2015-Mar-24 08:31N 32°42' W 117°14'0 0.0
2015-Mar-24 07:28N 32°42' W 117°14'0 0.0
2015-Mar-24 06:31N 32°42' W 117°14'0 0.0
2015-Mar-24 05:31N 32°42' W 117°14'0 0.0
2015-Mar-24 04:22N 32°42' W 117°14'0 0.0
2015-Mar-24 03:31N 32°42' W 117°14'0 0.0
2015-Mar-24 02:28N 32°42' W 117°14'0 0.0
2015-Mar-24 01:31N 32°42' W 117°14'0 0.0
2015-Mar-24 00:31N 32°42' W 117°14'0 0.0
2015-Mar-23 23:31N 32°42' W 117°14'0 0.0
2015-Mar-23 22:31N 32°42' W 117°14'0 0.0
2015-Mar-23 21:31N 32°42' W 117°14'0 0.0
2015-Mar-23 20:31N 32°42' W 117°14'0 0.0
2015-Mar-23 19:31N 32°42' W 117°14'0 0.0
2015-Mar-23 18:31N 32°42' W 117°14'0 0.0
2015-Mar-23 17:31N 32°42' W 117°14'0 0.0
2015-Mar-23 16:31N 32°42' W 117°14'0 0.1
2015-Mar-23 15:33N 32°42' W 117°14'2 1.8
2015-Mar-23 14:33N 32°43' W 117°13'1 1.4
2015-Mar-23 13:31N 32°42' W 117°11'0 0.0
2015-Mar-21 15:15N 32°42' W 117°11'0 0.1
2015-Mar-21 14:33N 32°42' W 117°11'0 0.1
2015-Mar-21 13:33N 32°42' W 117°11'0 0.0
2015-Mar-21 12:33N 32°42' W 117°11'0 0.0
2015-Mar-21 11:33N 32°42' W 117°11'0 0.0
2015-Mar-21 10:33N 32°42' W 117°11'0 0.0
2015-Mar-21 09:33N 32°42' W 117°11'0 0.0
2015-Mar-21 08:33N 32°42' W 117°11'0 0.0
2015-Mar-21 07:33N 32°42' W 117°11'0 0.0
2015-Mar-21 06:33N 32°42' W 117°11'0 0.0
2015-Mar-21 05:33N 32°42' W 117°11'0 0.0
2015-Mar-21 04:33N 32°42' W 117°11'0 0.0
2015-Mar-21 03:30N 32°42' W 117°11'0 0.0
2015-Mar-21 02:33N 32°42' W 117°11'0 0.0
2015-Mar-21 01:33N 32°42' W 117°11'0 0.0
2015-Mar-21 00:33N 32°42' W 117°11'0 0.4
2015-Mar-20 23:34N 32°43' W 117°11'6 6.3
2015-Mar-20 22:33N 32°37' W 117°13'9 9.5
2015-Mar-20 21:33N 32°35' W 117°24'9 9.3
2015-Mar-20 20:33N 32°36' W 117°35'9 9.2
2015-Mar-20 19:33N 32°36' W 117°46'10 9.3
2015-Mar-20 18:32N 32°36' W 117°57'9 9.4
2015-Mar-20 17:33N 32°37' W 118°08'1111.0
2015-Mar-20 16:33N 32°38' W 118°21'1312.9
2015-Mar-20 15:33N 32°37' W 118°37'1412.7
2015-Mar-20 14:27N 32°37' W 118°53'2 2.3
2015-Mar-20 13:31N 32°38' W 118°56'9 8.0
2015-Mar-20 12:22N 32°37' W 118°45'6 7.0
2015-Mar-20 11:33N 32°37' W 118°38'4 3.3
2015-Mar-20 10:24N 32°37' W 118°42'6 6.4
2015-Mar-20 09:24N 32°37' W 118°50'6 6.4
2015-Mar-20 08:31N 32°37' W 118°57'1 1.1
2015-Mar-20 07:13N 32°37' W 118°55'18 6.5
2015-Mar-20 04:28N 32°38' W 118°34'20 6.9
2015-Mar-20 01:33N 32°37' W 118°58'15 7.2
2015-Mar-19 23:32N 32°38' W 119°15'2211.2
2015-Mar-19 21:32N 32°38' W 118°48'1212.6
2015-Mar-19 20:33N 32°37' W 118°34'1312.7
2015-Mar-19 19:32N 32°37' W 118°18'1212.9
2015-Mar-19 18:33N 32°36' W 118°03'1212.1
2015-Mar-19 17:33N 32°36' W 117°49'7 6.9
2015-Mar-19 16:33N 32°36' W 117°41'7 6.7
2015-Mar-19 15:33N 32°36' W 117°49'7 6.8
2015-Mar-19 14:33N 32°36' W 117°57'10 7.0
2015-Mar-19 13:03N 32°36' W 118°09'2 4.7
2015-Mar-19 12:32N 32°36' W 118°06'9 7.4
2015-Mar-19 11:21N 32°36' W 117°56'6 8.0
2015-Mar-19 10:33N 32°36' W 117°48'6 6.5
2015-Mar-19 09:33N 32°36' W 117°41'7 7.1
2015-Mar-19 08:33N 32°36' W 117°49'7 6.7
2015-Mar-19 07:33N 32°36' W 117°57'7 7.2
2015-Mar-19 06:34N 32°36' W 118°06'4 3.6
2015-Mar-19 05:33N 32°36' W 118°01'7 7.2
2015-Mar-19 04:33N 32°36' W 117°53'7 7.2
2015-Mar-19 03:33N 32°36' W 117°44'7 7.2
2015-Mar-19 02:34N 32°36' W 117°35'7 7.0
2015-Mar-19 01:33N 32°36' W 117°27'7 7.0
2015-Mar-19 00:33N 32°36' W 117°19'7 7.0
2015-Mar-18 23:32N 32°42' W 117°14'2 2.3
2015-Mar-18 22:31N 32°42' W 117°11'0 0.0
2015-Mar-18 21:31N 32°42' W 117°11'0 0.0
2015-Mar-18 20:31N 32°42' W 117°11'  
Track history (hours):
 
Tides and Currents Weather Stations Pressure Air Temp Water Temp Dewpoint Dewpoint Depression Visibility Wind Speed Wind Dir Waves Ship Positions

Kaiser

Last reported at 2015-Mar-28 03:32 UTC. Time now 2015-Mar-28 05:14 UTC.
Position N 32°42' W 117°11'.

Length 207 m; draft 8.5 m.

Type: Tanker. MMSI: 303849000.

Date/timePositionNaut miles runAvg speedWind from/ knotsBaromVisibWave heightAir tempDewpointWater temp
2015-Mar-28 03:32N 32°42' W 117°11'0 0.0
2015-Mar-28 02:32N 32°42' W 117°11'0 0.0
2015-Mar-28 01:32N 32°42' W 117°11'0 0.0
2015-Mar-28 00:29N 32°42' W 117°11'0 0.0
2015-Mar-27 23:32N 32°42' W 117°11'0 0.0
2015-Mar-27 22:32N 32°42' W 117°11'0 0.0
2015-Mar-27 21:29N 32°42' W 117°11'0 0.2
2015-Mar-27 20:33N 32°42' W 117°11'7 6.6
2015-Mar-27 19:33N 32°36' W 117°13'10 9.9
2015-Mar-27 18:33N 32°31' W 117°24'8 8.1
2015-Mar-27 17:33N 32°30' W 117°33'2 2.3
2015-Mar-27 16:33N 32°30' W 117°36'8 8.2
2015-Mar-27 15:33N 32°30' W 117°26'4 3.7
2015-Mar-27 14:33N 32°30' W 117°30'6 5.7
2015-Mar-27 13:33N 32°31' W 117°37'8 7.8
2015-Mar-27 12:33N 32°30' W 117°28'2 2.0
2015-Mar-27 11:34N 32°30' W 117°25'8 7.7
2015-Mar-27 10:34N 32°30' W 117°35'7 6.6
2015-Mar-27 09:33N 32°30' W 117°27'0 0.4
2015-Mar-27 08:33N 32°30' W 117°27'7 7.4
2015-Mar-27 07:34N 32°30' W 117°36'4 4.0
2015-Mar-27 06:33N 32°30' W 117°31'8 7.9
2015-Mar-27 05:33N 32°32' W 117°22'4 4.2
2015-Mar-27 04:34N 32°34' W 117°17'7 6.8
2015-Mar-27 03:33N 32°35' W 117°25'7 7.0
2015-Mar-27 02:33N 32°36' W 117°34'8 7.7
2015-Mar-27 01:33N 32°35' W 117°25'6 6.4
2015-Mar-27 00:33N 32°35' W 117°32'1111.4
2015-Mar-26 23:33N 32°35' W 117°46'1515.2
2015-Mar-26 22:33N 32°36' W 118°04'1413.8
2015-Mar-26 21:33N 32°36' W 118°20'1312.9
2015-Mar-26 20:33N 32°36' W 118°35'1212.2
2015-Mar-26 19:33N 32°36' W 118°50'10 9.6
2015-Mar-26 18:33N 32°36' W 119°01'1010.4
2015-Mar-26 17:33N 32°34' W 118°49'1312.7
2015-Mar-26 16:33N 32°35' W 118°34'1313.0
2015-Mar-26 15:33N 32°35' W 118°19'1312.9
2015-Mar-26 14:33N 32°36' W 118°03'1111.3
2015-Mar-26 13:33N 32°36' W 117°50'3 2.6
2015-Mar-26 12:33N 32°36' W 117°47'9 8.9
2015-Mar-26 11:33N 32°36' W 117°57'9 8.7
2015-Mar-26 10:33N 32°36' W 118°08'1 0.9
2015-Mar-26 09:33N 32°36' W 118°09'10 9.6
2015-Mar-26 08:33N 32°36' W 117°57'5 4.7
2015-Mar-26 07:33N 32°36' W 117°52'9 8.7
2015-Mar-26 06:33N 32°36' W 118°02'9 8.8
2015-Mar-26 05:33N 32°36' W 118°13'9 9.2
2015-Mar-26 04:33N 32°36' W 118°24'9 9.3
2015-Mar-26 03:33N 32°36' W 118°35'9 9.0
2015-Mar-26 02:33N 32°36' W 118°45'10 9.8
2015-Mar-26 01:33N 32°36' W 118°57'2 2.5
2015-Mar-26 00:33N 32°37' W 118°54'1312.8
2015-Mar-25 23:33N 32°37' W 118°39'1211.8
2015-Mar-25 22:34N 32°37' W 118°25'1313.2
2015-Mar-25 21:33N 32°37' W 118°41'1313.2
2015-Mar-25 20:34N 32°37' W 118°56'1313.1
2015-Mar-25 19:33N 32°37' W 119°12'7 7.2
2015-Mar-25 18:33N 32°37' W 119°03'1212.3
2015-Mar-25 17:33N 32°37' W 118°49'1212.6
2015-Mar-25 16:33N 32°37' W 118°34'1312.9
2015-Mar-25 15:33N 32°37' W 118°19'1312.8
2015-Mar-25 14:33N 32°36' W 118°03'1211.8
2015-Mar-25 13:33N 32°36' W 117°49'2 1.6
2015-Mar-25 12:33N 32°35' W 117°48'7 6.8
2015-Mar-25 11:33N 32°35' W 117°56'1 0.8
2015-Mar-25 10:33N 32°36' W 117°57'7 7.0
2015-Mar-25 09:33N 32°36' W 117°48'7 7.0
2015-Mar-25 08:33N 32°36' W 117°40'7 7.3
2015-Mar-25 07:33N 32°36' W 117°31'2 2.0
2015-Mar-25 06:33N 32°35' W 117°29'6 6.4
2015-Mar-25 05:34N 32°36' W 117°36'7 7.0
2015-Mar-25 04:33N 32°36' W 117°28'7 6.8
2015-Mar-25 03:33N 32°36' W 117°20'7 6.6
2015-Mar-25 02:33N 32°35' W 117°28'7 6.8
2015-Mar-25 01:33N 32°35' W 117°36'1 0.8
2015-Mar-25 00:33N 32°35' W 117°35'7 6.7
2015-Mar-24 23:33N 32°35' W 117°27'6 6.2
2015-Mar-24 22:33N 32°35' W 117°20'2 1.5
2015-Mar-24 21:33N 32°34' W 117°18'3 2.8
2015-Mar-24 20:33N 32°35' W 117°22'8 7.6
2015-Mar-24 19:33N 32°35' W 117°30'2 2.5
2015-Mar-24 18:33N 32°36' W 117°28'6 6.4
2015-Mar-24 17:33N 32°36' W 117°20'8 7.4
2015-Mar-24 16:32N 32°42' W 117°14'0 0.4
2015-Mar-24 15:25N 32°42' W 117°14'0 0.0
2015-Mar-24 14:31N 32°42' W 117°14'0 0.0
2015-Mar-24 13:19N 32°42' W 117°14'0 0.0
2015-Mar-24 12:31N 32°42' W 117°14'0 0.0
2015-Mar-24 11:31N 32°42' W 117°14'0 0.0
2015-Mar-24 10:31N 32°42' W 117°14'0 0.0
2015-Mar-24 09:31N 32°42' W 117°14'0 0.0
2015-Mar-24 08:31N 32°42' W 117°14'0 0.0
2015-Mar-24 07:28N 32°42' W 117°14'0 0.0
2015-Mar-24 06:31N 32°42' W 117°14'0 0.0
2015-Mar-24 05:31N 32°42' W 117°14'0 0.0
2015-Mar-24 04:22N 32°42' W 117°14'0 0.0
2015-Mar-24 03:31N 32°42' W 117°14'0 0.0
2015-Mar-24 02:28N 32°42' W 117°14'0 0.0
2015-Mar-24 01:31N 32°42' W 117°14'0 0.0
2015-Mar-24 00:31N 32°42' W 117°14'0 0.0
2015-Mar-23 23:31N 32°42' W 117°14'0 0.0
2015-Mar-23 22:31N 32°42' W 117°14'0 0.0
2015-Mar-23 21:31N 32°42' W 117°14'0 0.0
2015-Mar-23 20:31N 32°42' W 117°14'0 0.0
2015-Mar-23 19:31N 32°42' W 117°14'0 0.0
2015-Mar-23 18:31N 32°42' W 117°14'0 0.0
2015-Mar-23 17:31N 32°42' W 117°14'0 0.0
2015-Mar-23 16:31N 32°42' W 117°14'0 0.1
2015-Mar-23 15:33N 32°42' W 117°14'2 1.8
2015-Mar-23 14:33N 32°43' W 117°13'1 1.4
2015-Mar-23 13:31N 32°42' W 117°11'0 0.0
2015-Mar-21 15:15N 32°42' W 117°11'0 0.1
2015-Mar-21 14:33N 32°42' W 117°11'0 0.1
2015-Mar-21 13:33N 32°42' W 117°11'0 0.0
2015-Mar-21 12:33N 32°42' W 117°11'0 0.0
2015-Mar-21 11:33N 32°42' W 117°11'0 0.0
2015-Mar-21 10:33N 32°42' W 117°11'0 0.0
2015-Mar-21 09:33N 32°42' W 117°11'0 0.0
2015-Mar-21 08:33N 32°42' W 117°11'0 0.0
2015-Mar-21 07:33N 32°42' W 117°11'0 0.0
2015-Mar-21 06:33N 32°42' W 117°11'0 0.0
2015-Mar-21 05:33N 32°42' W 117°11'0 0.0
2015-Mar-21 04:33N 32°42' W 117°11'0 0.0
2015-Mar-21 03:30N 32°42' W 117°11'0 0.0
2015-Mar-21 02:33N 32°42' W 117°11'0 0.0
2015-Mar-21 01:33N 32°42' W 117°11'0 0.0
2015-Mar-21 00:33N 32°42' W 117°11'0 0.4
2015-Mar-20 23:34N 32°43' W 117°11'6 6.3
2015-Mar-20 22:33N 32°37' W 117°13'9 9.5
2015-Mar-20 21:33N 32°35' W 117°24'9 9.3
2015-Mar-20 20:33N 32°36' W 117°35'9 9.2
2015-Mar-20 19:33N 32°36' W 117°46'10 9.3
2015-Mar-20 18:32N 32°36' W 117°57'9 9.4
2015-Mar-20 17:33N 32°37' W 118°08'1111.0
2015-Mar-20 16:33N 32°38' W 118°21'1312.9
2015-Mar-20 15:33N 32°37' W 118°37'1412.7
2015-Mar-20 14:27N 32°37' W 118°53'2 2.3
2015-Mar-20 13:31N 32°38' W 118°56'9 8.0
2015-Mar-20 12:22N 32°37' W 118°45'6 7.0
2015-Mar-20 11:33N 32°37' W 118°38'4 3.3
2015-Mar-20 10:24N 32°37' W 118°42'6 6.4
2015-Mar-20 09:24N 32°37' W 118°50'6 6.4
2015-Mar-20 08:31N 32°37' W 118°57'1 1.1
2015-Mar-20 07:13N 32°37' W 118°55'18 6.5
2015-Mar-20 04:28N 32°38' W 118°34'20 6.9
2015-Mar-20 01:33N 32°37' W 118°58'15 7.2
2015-Mar-19 23:32N 32°38' W 119°15'2211.2
2015-Mar-19 21:32N 32°38' W 118°48'1212.6
2015-Mar-19 20:33N 32°37' W 118°34'1312.7
2015-Mar-19 19:32N 32°37' W 118°18'1212.9
2015-Mar-19 18:33N 32°36' W 118°03'1212.1
2015-Mar-19 17:33N 32°36' W 117°49'7 6.9
2015-Mar-19 16:33N 32°36' W 117°41'7 6.7
2015-Mar-19 15:33N 32°36' W 117°49'7 6.8
2015-Mar-19 14:33N 32°36' W 117°57'10 7.0
2015-Mar-19 13:03N 32°36' W 118°09'2 4.7
2015-Mar-19 12:32N 32°36' W 118°06'9 7.4
2015-Mar-19 11:21N 32°36' W 117°56'6 8.0
2015-Mar-19 10:33N 32°36' W 117°48'6 6.5
2015-Mar-19 09:33N 32°36' W 117°41'7 7.1
2015-Mar-19 08:33N 32°36' W 117°49'7 6.7
2015-Mar-19 07:33N 32°36' W 117°57'7 7.2
2015-Mar-19 06:34N 32°36' W 118°06'4 3.6
2015-Mar-19 05:33N 32°36' W 118°01'7 7.2
2015-Mar-19 04:33N 32°36' W 117°53'7 7.2
2015-Mar-19 03:33N 32°36' W 117°44'7 7.2
2015-Mar-19 02:34N 32°36' W 117°35'7 7.0
2015-Mar-19 01:33N 32°36' W 117°27'7 7.0
2015-Mar-19 00:33N 32°36' W 117°19'7 7.0
2015-Mar-18 23:32N 32°42' W 117°14'2 2.3
2015-Mar-18 22:31N 32°42' W 117°11'0 0.0
2015-Mar-18 21:31N 32°42' W 117°11'0 0.0
2015-Mar-18 20:31N 32°42' W 117°11'  

Dump ship's entire track history